Time;durP1;ratioP1;P1;durP2;ratioP2;P2;SDS_P1;SDS_P2;PMS_P1;PMS_P2;Temp;Humidity;BMP_temperature;BMP_pressure;BME280_temperature;BME280_humidity;BME280_pressure;Samples;Min_cycle;Max_cycle;Signal;HPM_P1;HPM_P2
2022/05/03 00:01:05;;;;;;;8.50;7.53;;;;;;;;;;5052641;28;20714;-87
2022/05/03 00:03:38;;;;;;;8.90;7.33;;;;;;;;;;5053094;28;20186;-87
2022/05/03 00:06:12;;;;;;;8.70;7.80;;;;;;;;;;5052740;28;20241;-88
2022/05/03 00:08:40;;;;;;;8.83;8.03;;;;;;;;;;5052302;28;20194;-88
2022/05/03 00:11:10;;;;;;;9.23;8.33;;;;;;;;;;5052851;28;20697;-87
2022/05/03 00:13:38;;;;;;;8.93;8.03;;;;;;;;;;5052748;28;20198;-87
2022/05/03 00:16:08;;;;;;;8.47;7.67;;;;;;;;;;5053141;28;20206;-87
2022/05/03 00:18:48;;;;;;;8.37;7.57;;;;;;;;;;5052475;28;20216;-87
2022/05/03 00:21:16;;;;;;;8.80;7.90;;;;;;;;;;5052698;28;20241;-87
2022/05/03 00:23:43;;;;;;;9.90;8.83;;;;;;;;;;5052581;28;20221;-87
2022/05/03 00:26:10;;;;;;;10.23;8.77;;;;;;;;;;5052735;28;20226;-88
2022/05/03 00:28:39;;;;;;;9.83;8.33;;;;;;;;;;5051998;28;20202;-87
2022/05/03 00:31:07;;;;;;;10.40;8.83;;;;;;;;;;5052472;28;20233;-87
2022/05/03 00:33:35;;;;;;;10.23;8.20;;;;;;;;;;5052281;28;20205;-87
2022/05/03 00:36:02;;;;;;;9.87;8.87;;;;;;;;;;5052382;28;20681;-87
2022/05/03 00:38:34;;;;;;;10.07;9.07;;;;;;;;;;5052383;28;20217;-87
2022/05/03 00:41:03;;;;;;;9.70;8.70;;;;;;;;;;5052276;28;20225;-88
2022/05/03 00:43:35;;;;;;;10.60;9.60;;;;;;;;;;5052295;28;20650;-87
2022/05/03 00:46:03;;;;;;;10.30;9.30;;;;;;;;;;5052552;28;20234;-87
2022/05/03 00:48:47;;;;;;;10.73;9.63;;;;;;;;;;5052534;28;20213;-87
2022/05/03 00:51:17;;;;;;;10.10;8.93;;;;;;;;;;5052286;28;20225;-87
2022/05/03 00:53:48;;;;;;;10.10;8.80;;;;;;;;;;5052295;28;20229;-87
2022/05/03 00:56:20;;;;;;;9.57;8.63;;;;;;;;;;5052759;28;20190;-89
2022/05/03 00:58:51;;;;;;;13.33;10.27;;;;;;;;;;5051705;28;20193;-87
2022/05/03 01:01:22;;;;;;;10.00;8.67;;;;;;;;;;5052394;28;20234;-87
2022/05/03 01:03:57;;;;;;;13.40;9.30;;;;;;;;;;5052043;28;20198;-88
2022/05/03 01:06:31;;;;;;;14.30;9.10;;;;;;;;;;5050311;28;20723;-88
2022/05/03 01:09:03;;;;;;;10.20;9.20;;;;;;;;;;5034232;28;20226;-87
2022/05/03 01:11:42;;;;;;;10.40;9.40;;;;;;;;;;5032827;28;20603;-87
2022/05/03 01:14:14;;;;;;;10.47;9.47;;;;;;;;;;5031893;28;20238;-87
2022/05/03 01:16:43;;;;;;;10.57;9.17;;;;;;;;;;5032621;28;20214;-87
2022/05/03 01:19:22;;;;;;;11.00;9.00;;;;;;;;;;5031863;28;20245;-88
2022/05/03 01:21:55;;;;;;;12.00;9.67;;;;;;;;;;5032771;28;20198;-87
2022/05/03 01:24:32;;;;;;;9.83;8.83;;;;;;;;;;5031951;28;20242;-87
2022/05/03 01:27:08;;;;;;;10.07;9.17;;;;;;;;;;5032175;28;20643;-87
2022/05/03 01:29:37;;;;;;;10.00;8.20;;;;;;;;;;5031526;28;20293;-87
2022/05/03 01:32:05;;;;;;;10.53;9.13;;;;;;;;;;5032561;28;20217;-87
2022/05/03 01:34:33;;;;;;;9.97;9.07;;;;;;;;;;5031601;28;20338;-88
2022/05/03 01:37:15;;;;;;;10.83;9.83;;;;;;;;;;5032163;28;20195;-87
2022/05/03 01:39:53;;;;;;;11.27;9.27;;;;;;;;;;5031266;28;20243;-88
2022/05/03 01:42:24;;;;;;;9.63;8.47;;;;;;;;;;5032354;28;20194;-88
2022/05/03 01:44:59;;;;;;;10.33;9.30;;;;;;;;;;5031904;28;20237;-88
2022/05/03 01:47:27;;;;;;;10.57;9.53;;;;;;;;;;5033141;28;20690;-88
2022/05/03 01:50:19;;;;;;;10.43;9.33;;;;;;;;;;5035110;28;20238;-87
2022/05/03 01:53:09;;;;;;;10.63;9.50;;;;;;;;;;5036008;28;20223;-88
2022/05/03 01:55:49;;;;;;;9.57;8.53;;;;;;;;;;5034986;28;20234;-87
2022/05/03 01:58:21;;;;;;;10.67;9.43;;;;;;;;;;5035737;28;20194;-87
2022/05/03 02:00:55;;;;;;;11.73;9.53;;;;;;;;;;5040754;28;20690;-87
2022/05/03 02:03:27;;;;;;;10.07;9.07;;;;;;;;;;5055105;28;20183;-87
2022/05/03 02:05:59;;;;;;;11.93;9.37;;;;;;;;;;5054806;28;20548;-87
2022/05/03 02:08:29;;;;;;;9.53;8.53;;;;;;;;;;5055086;28;20551;-88
2022/05/03 02:11:03;;;;;;;11.70;9.23;;;;;;;;;;5054675;28;20242;-87
2022/05/03 02:16:53;;;;;;;14.93;9.97;;;;;;;;;;5018066;28;20221;-88
2022/05/03 02:19:26;;;;;;;11.53;9.27;;;;;;;;;;5054587;28;20603;-88
2022/05/03 02:22:17;;;;;;;10.70;9.60;;;;;;;;;;5055154;28;20206;-87
2022/05/03 02:24:46;;;;;;;11.07;9.93;;;;;;;;;;5054307;28;20592;-88
2022/05/03 02:27:14;;;;;;;12.20;9.20;;;;;;;;;;5054998;28;20217;-87
2022/05/03 02:29:45;;;;;;;10.93;9.63;;;;;;;;;;5054125;28;20340;-88
2022/05/03 02:32:14;;;;;;;11.20;10.00;;;;;;;;;;5054863;28;20562;-88
2022/05/03 02:34:44;;;;;;;10.70;9.60;;;;;;;;;;5054459;28;20244;-87
2022/05/03 02:37:16;;;;;;;10.63;9.50;;;;;;;;;;5054617;28;20202;-87
2022/05/03 02:39:47;;;;;;;11.67;9.93;;;;;;;;;;5053893;28;20237;-87
2022/05/03 02:42:15;;;;;;;10.77;9.50;;;;;;;;;;5054689;28;20190;-87
2022/05/03 02:44:42;;;;;;;13.27;10.20;;;;;;;;;;5054263;28;20295;-87
2022/05/03 02:47:11;;;;;;;10.60;9.40;;;;;;;;;;5054334;28;20229;-88
2022/05/03 02:49:44;;;;;;;11.37;9.37;;;;;;;;;;5053667;28;20721;-88
2022/05/03 02:52:16;;;;;;;10.70;9.63;;;;;;;;;;5054534;28;20205;-87
2022/05/03 02:54:49;;;;;;;11.00;9.90;;;;;;;;;;5053768;28;20245;-88
2022/05/03 02:57:20;;;;;;;10.20;9.00;;;;;;;;;;5054227;28;20210;-87
2022/05/03 03:02:37;;;;;;;10.80;9.70;;;;;;;;;;5054321;28;20201;-88
2022/05/03 03:05:07;;;;;;;9.67;8.67;;;;;;;;;;5053795;28;20736;-88
2022/05/03 03:07:40;;;;;;;13.60;9.37;;;;;;;;;;5054291;28;20208;-87
2022/05/03 03:10:12;;;;;;;10.93;9.40;;;;;;;;;;5053201;28;20242;-87
2022/05/03 03:12:41;;;;;;;10.77;9.60;;;;;;;;;;5054425;28;20230;-87
2022/05/03 03:15:09;;;;;;;9.90;8.83;;;;;;;;;;5053704;28;20234;-87
2022/05/03 03:17:37;;;;;;;9.87;8.87;;;;;;;;;;5054102;28;20657;-87
2022/05/03 03:20:06;;;;;;;13.73;9.20;;;;;;;;;;5053251;28;20265;-88
2022/05/03 03:22:37;;;;;;;10.37;8.60;;;;;;;;;;5053914;28;20666;-88
2022/05/03 03:25:04;;;;;;;12.60;9.33;;;;;;;;;;5054818;28;20273;-87
2022/05/03 03:27:32;;;;;;;10.23;8.97;;;;;;;;;;5057081;28;20198;-87
2022/05/03 03:30:00;;;;;;;10.63;9.53;;;;;;;;;;5053617;28;20341;-87
2022/05/03 03:32:28;;;;;;;10.13;9.13;;;;;;;;;;5053981;28;20205;-87
2022/05/03 03:34:56;;;;;;;9.87;8.87;;;;;;;;;;5053255;28;20233;-87
2022/05/03 03:37:25;;;;;;;9.80;8.83;;;;;;;;;;5053712;28;20198;-87
2022/05/03 03:39:53;;;;;;;10.50;9.40;;;;;;;;;;5052674;28;20260;-87
2022/05/03 03:42:21;;;;;;;10.40;9.40;;;;;;;;;;5053499;28;20206;-87
2022/05/03 03:44:49;;;;;;;10.60;9.50;;;;;;;;;;5053274;28;20309;-87
2022/05/03 03:47:17;;;;;;;10.27;9.30;;;;;;;;;;5053455;28;20226;-87
2022/05/03 03:49:44;;;;;;;10.17;9.00;;;;;;;;;;5052678;28;20615;-87
2022/05/03 03:52:13;;;;;;;11.10;8.97;;;;;;;;;;5053214;28;20701;-87
2022/05/03 03:54:41;;;;;;;10.73;9.73;;;;;;;;;;5052754;28;20616;-87
2022/05/03 03:57:09;;;;;;;13.50;10.07;;;;;;;;;;5053422;28;20229;-86
2022/05/03 03:59:37;;;;;;;10.27;9.27;;;;;;;;;;5052007;28;20249;-87
2022/05/03 04:02:05;;;;;;;10.50;9.23;;;;;;;;;;5053220;28;20218;-87
2022/05/03 04:04:32;;;;;;;11.07;9.97;;;;;;;;;;5052673;28;20238;-87
2022/05/03 04:07:00;;;;;;;11.27;10.13;;;;;;;;;;5052913;28;20229;-88
2022/05/03 04:09:28;;;;;;;12.47;10.37;;;;;;;;;;5052355;28;20238;-87
2022/05/03 04:11:55;;;;;;;11.37;10.27;;;;;;;;;;5052634;28;20202;-87
2022/05/03 04:14:24;;;;;;;10.93;9.93;;;;;;;;;;5052552;28;20234;-87
2022/05/03 04:16:51;;;;;;;11.10;10.00;;;;;;;;;;5052888;28;20205;-87
2022/05/03 04:19:18;;;;;;;11.53;10.33;;;;;;;;;;5052741;28;20234;-87
2022/05/03 04:21:45;;;;;;;11.33;9.90;;;;;;;;;;5052837;28;20217;-87
2022/05/03 04:24:12;;;;;;;11.70;9.50;;;;;;;;;;5052466;28;20251;-87
2022/05/03 04:26:39;;;;;;;12.47;10.13;;;;;;;;;;5052531;28;20226;-87
2022/05/03 04:29:07;;;;;;;10.53;9.53;;;;;;;;;;5051930;28;20241;-87
2022/05/03 04:31:36;;;;;;;11.07;9.97;;;;;;;;;;5052485;28;20229;-87
2022/05/03 04:34:04;;;;;;;10.90;9.80;;;;;;;;;;5052417;28;20238;-88
2022/05/03 04:36:32;;;;;;;11.50;10.30;;;;;;;;;;5052767;28;20573;-87
2022/05/03 04:39:00;;;;;;;14.73;10.30;;;;;;;;;;5052230;28;20229;-86
2022/05/03 04:41:27;;;;;;;13.37;10.73;;;;;;;;;;5052757;28;20241;-87
2022/05/03 04:43:54;;;;;;;15.73;10.80;;;;;;;;;;5051937;28;20244;-87
2022/05/03 04:46:22;;;;;;;12.13;10.93;;;;;;;;;;5048428;28;20590;-87
2022/05/03 04:48:50;;;;;;;12.40;11.20;;;;;;;;;;5051967;28;20564;-87
2022/05/03 04:51:18;;;;;;;12.93;11.30;;;;;;;;;;5043283;28;20298;-87
2022/05/03 04:54:04;;;;;;;13.20;10.27;;;;;;;;;;5041748;28;20237;-87
2022/05/03 04:56:32;;;;;;;13.40;11.40;;;;;;;;;;5032743;28;20182;-86
2022/05/03 04:59:01;;;;;;;12.50;11.20;;;;;;;;;;5039502;28;20255;-87
2022/05/03 05:01:28;;;;;;;12.60;11.03;;;;;;;;;;5035187;23;20219;-79
2022/05/03 05:03:57;;;;;;;13.93;11.47;;;;;;;;;;5011557;28;20231;-79
2022/05/03 05:06:24;;;;;;;13.57;11.20;;;;;;;;;;5012404;28;20245;-79
2022/05/03 05:08:51;;;;;;;13.07;11.60;;;;;;;;;;5010711;28;20210;-79
2022/05/03 05:11:18;;;;;;;15.27;11.50;;;;;;;;;;5020406;28;20226;-79
2022/05/03 05:13:46;;;;;;;12.87;11.50;;;;;;;;;;5018827;28;20204;-79
2022/05/03 05:16:13;;;;;;;13.17;11.83;;;;;;;;;;5022774;28;20222;-80
2022/05/03 05:18:41;;;;;;;12.17;10.90;;;;;;;;;;5023144;28;20198;-79
2022/05/03 05:21:10;;;;;;;12.43;11.13;;;;;;;;;;5020824;28;20226;-79
2022/05/03 05:23:37;;;;;;;15.93;11.07;;;;;;;;;;5020064;28;20231;-80
2022/05/03 05:26:04;;;;;;;12.20;10.90;;;;;;;;;;5024743;28;20300;-80
2022/05/03 05:28:31;;;;;;;12.37;11.10;;;;;;;;;;5020328;28;20219;-79
2022/05/03 05:30:58;;;;;;;13.03;11.63;;;;;;;;;;5020046;28;20227;-81
2022/05/03 05:33:25;;;;;;;15.47;12.67;;;;;;;;;;5028136;28;20211;-80
2022/05/03 05:35:52;;;;;;;13.73;11.50;;;;;;;;;;5023005;28;20311;-80
2022/05/03 05:38:21;;;;;;;13.23;11.83;;;;;;;;;;5015338;28;20207;-82
2022/05/03 05:40:49;;;;;;;14.47;11.97;;;;;;;;;;5019623;28;20242;-81
2022/05/03 05:43:16;;;;;;;12.73;11.43;;;;;;;;;;5022514;28;20211;-83
2022/05/03 05:45:43;;;;;;;12.40;11.10;;;;;;;;;;5026303;28;20231;-80
2022/05/03 05:48:12;;;;;;;16.27;12.10;;;;;;;;;;5026099;28;20227;-82
2022/05/03 05:50:39;;;;;;;13.27;11.97;;;;;;;;;;5034749;28;20239;-82
2022/05/03 05:55:53;;;;;;;13.70;12.30;;;;;;;;;;5028219;28;20285;-82
2022/05/03 05:58:20;;;;;;;14.33;11.57;;;;;;;;;;5019683;28;20207;-83
2022/05/03 06:00:47;;;;;;;13.90;12.00;;;;;;;;;;5018332;28;20232;-81
2022/05/03 06:03:14;;;;;;;12.40;11.10;;;;;;;;;;5011818;28;20201;-84
2022/05/03 06:05:41;;;;;;;13.53;11.63;;;;;;;;;;4999942;28;20239;-82
2022/05/03 06:08:09;;;;;;;14.47;11.50;;;;;;;;;;5001480;28;20700;-83
2022/05/03 06:10:36;;;;;;;14.80;12.17;;;;;;;;;;4999742;28;20252;-83
2022/05/03 06:13:05;;;;;;;13.87;12.47;;;;;;;;;;5002983;28;20664;-84
2022/05/03 06:15:32;;;;;;;15.03;12.20;;;;;;;;;;5000447;28;20621;-82
2022/05/03 06:17:59;;;;;;;14.83;11.70;;;;;;;;;;4991890;28;20684;-82
2022/05/03 06:20:27;;;;;;;18.20;12.73;;;;;;;;;;4984647;28;20247;-82
2022/05/03 06:22:54;;;;;;;13.70;11.80;;;;;;;;;;4984644;28;20205;-80
2022/05/03 06:25:23;;;;;;;20.67;12.40;;;;;;;;;;4983489;28;20716;-84
2022/05/03 06:30:35;;;;;;;13.60;11.47;;;;;;;;;;4986449;28;20232;-83
2022/05/03 06:33:02;;;;;;;15.53;12.03;;;;;;;;;;5003932;28;20329;-81
2022/05/03 06:35:29;;;;;;;14.07;11.27;;;;;;;;;;5002347;28;20248;-82
2022/05/03 06:37:56;;;;;;;16.60;11.33;;;;;;;;;;5023814;28;20211;-82
2022/05/03 06:40:23;;;;;;;13.10;10.10;;;;;;;;;;5007446;28;20240;-82
2022/05/03 06:42:50;;;;;;;11.70;10.10;;;;;;;;;;5005039;28;20204;-82
2022/05/03 06:45:18;;;;;;;12.90;10.43;;;;;;;;;;5022189;28;20246;-81
2022/05/03 06:47:48;;;;;;;11.57;9.77;;;;;;;;;;5025411;28;20227;-81
2022/05/03 06:50:15;;;;;;;10.80;9.73;;;;;;;;;;5014600;28;20258;-85
2022/05/03 06:52:42;;;;;;;12.87;10.10;;;;;;;;;;5013613;28;20264;-85
2022/05/03 06:55:11;;;;;;;19.73;10.60;;;;;;;;;;5012851;28;20339;-85
2022/05/03 06:57:38;;;;;;;13.23;10.77;;;;;;;;;;5010775;28;20238;-85
2022/05/03 07:00:05;;;;;;;14.00;8.67;;;;;;;;;;4999010;28;20235;-85
2022/05/03 07:02:33;;;;;;;9.77;8.60;;;;;;;;;;5033452;28;20207;-85
2022/05/03 07:05:01;;;;;;;10.60;8.93;;;;;;;;;;5033096;28;20235;-85
2022/05/03 07:07:29;;;;;;;11.63;9.07;;;;;;;;;;5033798;28;20237;-85
2022/05/03 07:09:56;;;;;;;9.70;8.77;;;;;;;;;;5032833;28;20262;-85
2022/05/03 07:12:23;;;;;;;10.93;9.27;;;;;;;;;;5034526;28;20202;-85
2022/05/03 07:14:50;;;;;;;10.23;9.27;;;;;;;;;;5033507;28;20242;-85
2022/05/03 07:22:47;;;;;;;10.37;8.50;;;;;;;;;;5031238;28;20253;-83
2022/05/03 07:25:16;;;;;;;12.10;8.30;;;;;;;;;;5016961;28;20227;-85
2022/05/03 07:27:43;;;;;;;11.27;9.13;;;;;;;;;;5016171;28;20227;-84
2022/05/03 07:30:11;;;;;;;9.77;8.77;;;;;;;;;;5012980;28;20262;-85
2022/05/03 07:32:38;;;;;;;12.23;8.50;;;;;;;;;;5013167;28;20664;-84
2022/05/03 07:35:05;;;;;;;9.43;8.43;;;;;;;;;;5012851;28;20235;-84
2022/05/03 07:37:32;;;;;;;10.30;8.07;;;;;;;;;;5013375;28;20210;-84
2022/05/03 07:40:01;;;;;;;12.83;8.73;;;;;;;;;;5012482;28;20250;-82
2022/05/03 07:42:28;;;;;;;10.47;7.90;;;;;;;;;;5016169;28;20238;-84
2022/05/03 07:44:55;;;;;;;10.87;9.07;;;;;;;;;;5014977;28;20695;-85
2022/05/03 07:47:22;;;;;;;11.40;8.70;;;;;;;;;;5012952;28;20230;-84
2022/05/03 07:49:49;;;;;;;11.70;8.07;;;;;;;;;;5016777;28;20241;-84
2022/05/03 07:52:16;;;;;;;9.53;8.53;;;;;;;;;;5024285;28;20211;-83
2022/05/03 07:54:43;;;;;;;11.07;8.57;;;;;;;;;;5017472;28;20245;-84
2022/05/03 07:57:12;;;;;;;11.80;8.30;;;;;;;;;;5015208;28;20202;-84
2022/05/03 07:59:39;;;;;;;9.20;7.80;;;;;;;;;;5017271;28;20227;-85
2022/05/03 08:02:06;;;;;;;12.07;8.00;;;;;;;;;;5016333;28;20230;-84
2022/05/03 08:04:34;;;;;;;8.40;7.10;;;;;;;;;;5015267;28;20246;-85
2022/05/03 08:07:01;;;;;;;9.47;7.70;;;;;;;;;;5013562;28;20262;-85
2022/05/03 08:09:28;;;;;;;9.70;7.47;;;;;;;;;;5004656;28;20236;-84
2022/05/03 08:11:56;;;;;;;8.50;7.60;;;;;;;;;;4992956;28;20260;-85
2022/05/03 08:14:27;;;;;;;10.70;7.20;;;;;;;;;;4999785;28;20235;-84
2022/05/03 08:16:55;;;;;;;7.80;7.00;;;;;;;;;;5012035;28;20274;-84
2022/05/03 08:19:22;;;;;;;8.30;7.20;;;;;;;;;;5005642;28;20692;-85
2022/05/03 08:21:49;;;;;;;7.97;6.73;;;;;;;;;;4993038;28;20227;-85
2022/05/03 08:24:21;;;;;;;6.80;6.10;;;;;;;;;;5001923;28;20266;-88
2022/05/03 08:26:48;;;;;;;11.30;6.23;;;;;;;;;;5016628;28;20671;-88
2022/05/03 08:29:15;;;;;;;7.40;6.35;;;;;;;;;;5009312;28;20235;-84
2022/05/03 08:31:44;;;;;;;8.93;6.60;;;;;;;;;;4993612;28;20227;-85
2022/05/03 08:34:11;;;;;;;10.13;5.78;;;;;;;;;;4997965;28;20270;-84
2022/05/03 08:36:38;;;;;;;8.07;6.47;;;;;;;;;;5012833;28;20212;-85
2022/05/03 08:42:06;;;;;;;9.02;7.43;;;;;;;;;;4992659;28;20222;-84
2022/05/03 08:44:33;;;;;;;8.13;6.00;;;;;;;;;;5000464;28;20259;-84
2022/05/03 08:47:03;;;;;;;6.35;5.25;;;;;;;;;;5011428;28;20231;-84
2022/05/03 08:49:36;;;;;;;8.82;5.63;;;;;;;;;;5003005;28;20338;-84
2022/05/03 08:52:04;;;;;;;7.18;5.97;;;;;;;;;;4992174;28;20205;-85
2022/05/03 08:54:32;;;;;;;6.80;5.75;;;;;;;;;;4999821;28;20841;-84
2022/05/03 08:56:59;;;;;;;5.70;5.13;;;;;;;;;;5013689;28;20615;-85
2022/05/03 08:59:26;;;;;;;5.88;5.38;;;;;;;;;;5007520;28;20254;-83
2022/05/03 09:01:53;;;;;;;6.53;5.40;;;;;;;;;;4995943;28;20278;-85
2022/05/03 09:04:21;;;;;;;5.22;4.72;;;;;;;;;;5001856;28;20305;-85
2022/05/03 09:06:50;;;;;;;5.50;4.90;;;;;;;;;;5015276;28;20258;-85
2022/05/03 09:09:18;;;;;;;7.22;5.00;;;;;;;;;;5008783;28;20236;-85
2022/05/03 09:11:46;;;;;;;5.80;4.90;;;;;;;;;;4996290;28;20223;-87
2022/05/03 09:14:13;;;;;;;4.97;4.50;;;;;;;;;;5002295;28;20231;-85
2022/05/03 09:16:48;;;;;;;5.38;4.88;;;;;;;;;;5017117;28;20211;-86
2022/05/03 09:19:24;;;;;;;6.07;5.32;;;;;;;;;;5010788;28;20262;-86
2022/05/03 09:25:02;;;;;;;5.22;4.72;;;;;;;;;;5007540;28;20615;-87
2022/05/03 09:27:29;;;;;;;9.85;4.82;;;;;;;;;;5024996;28;20226;-85
2022/05/03 09:30:03;;;;;;;5.07;4.68;;;;;;;;;;5037051;28;20238;-86
2022/05/03 09:32:37;;;;;;;5.53;4.53;;;;;;;;;;5019293;28;20198;-86
2022/05/03 09:35:06;;;;;;;5.07;4.50;;;;;;;;;;5017578;28;20247;-85
2022/05/03 09:37:40;;;;;;;5.38;4.50;;;;;;;;;;5018458;28;20214;-85
2022/05/03 09:40:08;;;;;;;7.63;4.65;;;;;;;;;;5007564;28;20331;-85
2022/05/03 09:42:37;;;;;;;4.75;4.22;;;;;;;;;;4999760;28;20208;-85
2022/05/03 09:45:08;;;;;;;5.57;4.18;;;;;;;;;;5010987;28;20242;-85
2022/05/03 09:47:48;;;;;;;4.68;3.83;;;;;;;;;;5019053;28;20238;-82
2022/05/03 09:50:25;;;;;;;6.30;3.70;;;;;;;;;;5016661;28;20239;-87
2022/05/03 09:52:52;;;;;;;5.15;3.80;;;;;;;;;;5016924;28;20215;-86
2022/05/03 09:55:28;;;;;;;4.60;4.20;;;;;;;;;;5015939;28;20242;-85
2022/05/03 09:57:56;;;;;;;5.25;3.83;;;;;;;;;;5016011;28;20235;-87
2022/05/03 10:00:23;;;;;;;4.82;4.30;;;;;;;;;;5015782;28;20239;-87
2022/05/03 10:02:50;;;;;;;5.80;4.18;;;;;;;;;;5015804;28;20218;-87
2022/05/03 10:05:20;;;;;;;4.40;4.00;;;;;;;;;;5000863;28;20239;-86
2022/05/03 10:07:47;;;;;;;4.63;4.22;;;;;;;;;;4994934;28;20323;-88
2022/05/03 10:10:16;;;;;;;4.55;4.20;;;;;;;;;;4994548;28;20243;-86
2022/05/03 10:12:43;;;;;;;5.50;4.40;;;;;;;;;;4997691;28;20212;-86
2022/05/03 10:15:11;;;;;;;5.07;4.57;;;;;;;;;;4999130;28;20242;-85
2022/05/03 10:20:38;;;;;;;4.72;4.20;;;;;;;;;;4997997;28;20242;-87
2022/05/03 10:23:05;;;;;;;5.50;4.30;;;;;;;;;;4995525;28;20226;-87
2022/05/03 10:25:47;;;;;;;4.60;4.20;;;;;;;;;;4994716;28;20235;-84
2022/05/03 10:28:15;;;;;;;6.15;4.25;;;;;;;;;;4995087;28;20231;-87
2022/05/03 10:31:08;;;;;;;4.70;4.25;;;;;;;;;;4995293;28;20240;-87
2022/05/03 10:33:38;;;;;;;4.28;3.83;;;;;;;;;;4995002;28;20579;-86
2022/05/03 10:36:20;;;;;;;5.05;3.47;;;;;;;;;;4995324;28;20222;-87
2022/05/03 10:38:49;;;;;;;4.13;3.65;;;;;;;;;;4994094;28;20674;-88
2022/05/03 10:41:24;;;;;;;5.45;3.63;;;;;;;;;;4995405;28;20232;-87
2022/05/03 10:43:51;;;;;;;3.58;3.28;;;;;;;;;;5005528;28;20238;-87
2022/05/03 10:46:21;;;;;;;5.35;3.38;;;;;;;;;;5023209;28;20675;-87
2022/05/03 10:49:03;;;;;;;3.20;2.90;;;;;;;;;;5008548;28;20315;-87
2022/05/03 10:51:30;;;;;;;3.53;3.15;;;;;;;;;;4975427;28;20689;-87
2022/05/03 10:54:01;;;;;;;3.80;3.20;;;;;;;;;;4981948;28;20231;-86
2022/05/03 10:56:28;;;;;;;4.28;2.97;;;;;;;;;;5002532;28;20254;-88
2022/05/03 10:59:06;;;;;;;3.45;3.17;;;;;;;;;;5012294;28;20645;-88
2022/05/03 11:01:33;;;;;;;3.67;3.38;;;;;;;;;;5039195;23;20360;-86
2022/05/03 11:04:08;;;;;;;4.63;3.50;;;;;;;;;;5032308;28;20584;-88
2022/05/03 11:06:53;;;;;;;3.20;3.00;;;;;;;;;;5014128;28;20549;-88
2022/05/03 11:09:28;;;;;;;3.60;3.20;;;;;;;;;;5013206;28;20247;-88
2022/05/03 11:12:05;;;;;;;3.78;3.00;;;;;;;;;;5012873;28;20230;-88
2022/05/03 11:14:49;;;;;;;3.55;2.83;;;;;;;;;;5012591;28;20281;-88
2022/05/03 11:17:16;;;;;;;5.22;3.05;;;;;;;;;;5013312;28;20211;-89
2022/05/03 11:19:49;;;;;;;3.58;2.80;;;;;;;;;;5010950;28;20239;-88
2022/05/03 11:22:17;;;;;;;2.85;2.58;;;;;;;;;;5012703;28;20211;-88
2022/05/03 11:24:47;;;;;;;3.22;2.92;;;;;;;;;;5022501;28;20230;-88
2022/05/03 11:27:15;;;;;;;5.32;2.90;;;;;;;;;;5034745;28;20199;-88
2022/05/03 11:29:43;;;;;;;3.83;3.13;;;;;;;;;;5035154;28;20235;-88
2022/05/03 11:32:10;;;;;;;3.58;3.22;;;;;;;;;;5033304;28;20746;-89
2022/05/03 11:34:37;;;;;;;3.30;3.00;;;;;;;;;;5032201;28;20241;-89
2022/05/03 11:37:05;;;;;;;4.47;3.15;;;;;;;;;;5033418;28;20207;-88
2022/05/03 11:39:32;;;;;;;4.00;3.70;;;;;;;;;;5031899;28;20234;-89
2022/05/03 11:42:00;;;;;;;3.38;3.00;;;;;;;;;;5032742;28;20229;-89
2022/05/03 11:44:28;;;;;;;3.63;3.38;;;;;;;;;;5032828;28;20230;-89
2022/05/03 11:47:01;;;;;;;3.08;2.75;;;;;;;;;;5032425;28;20238;-88
2022/05/03 11:49:31;;;;;;;3.72;3.08;;;;;;;;;;5031886;28;20231;-88
2022/05/03 11:57:32;;;;;;;3.22;2.92;;;;;;;;;;5032374;28;20336;-88
2022/05/03 12:00:00;;;;;;;3.38;3.08;;;;;;;;;;5031838;28;20238;-88
2022/05/03 12:02:31;;;;;;;3.20;2.85;;;;;;;;;;5032042;28;20687;-88
2022/05/03 12:05:03;;;;;;;4.32;3.10;;;;;;;;;;5031837;28;20733;-88
2022/05/03 12:07:30;;;;;;;3.90;3.40;;;;;;;;;;5032621;28;20211;-87
2022/05/03 12:09:58;;;;;;;3.38;2.90;;;;;;;;;;5031673;28;20238;-89
2022/05/03 12:12:43;;;;;;;4.07;3.50;;;;;;;;;;5034893;28;20631;-88
2022/05/03 12:15:20;;;;;;;3.35;2.97;;;;;;;;;;5051907;28;20234;-90
2022/05/03 12:17:54;;;;;;;4.93;2.95;;;;;;;;;;5055073;28;20195;-89
2022/05/03 12:20:21;;;;;;;3.38;2.97;;;;;;;;;;5054365;28;20237;-89
2022/05/03 12:23:03;;;;;;;3.72;3.10;;;;;;;;;;5056708;28;20259;-89
2022/05/03 12:25:30;;;;;;;3.17;2.88;;;;;;;;;;5036659;28;20608;-88
2022/05/03 12:30:42;;;;;;;3.13;2.85;;;;;;;;;;5113391;23;20280;-88
2022/05/03 12:33:10;;;;;;;3.75;2.90;;;;;;;;;;5035215;28;20203;-88
2022/05/03 12:35:38;;;;;;;4.55;2.60;;;;;;;;;;5057868;28;20747;-89
2022/05/03 12:38:09;;;;;;;5.03;2.60;;;;;;;;;;5058356;28;20202;-88
2022/05/03 12:40:43;;;;;;;3.28;3.00;;;;;;;;;;5054780;28;20600;-86
2022/05/03 12:43:10;;;;;;;3.00;2.80;;;;;;;;;;5071867;28;20225;-87
2022/05/03 12:45:37;;;;;;;5.18;3.17;;;;;;;;;;5072702;28;20233;-87
2022/05/03 12:48:06;;;;;;;3.45;2.95;;;;;;;;;;5074519;28;20206;-87
2022/05/03 12:50:33;;;;;;;5.63;3.20;;;;;;;;;;5072447;28;20271;-88
2022/05/03 12:53:00;;;;;;;3.47;2.90;;;;;;;;;;5073166;28;20297;-87
2022/05/03 12:55:28;;;;;;;3.33;3.00;;;;;;;;;;5071963;28;20235;-87
2022/05/03 13:00:48;;;;;;;3.88;2.95;;;;;;;;;;5017770;28;20312;-87
2022/05/03 13:03:17;;;;;;;3.28;2.97;;;;;;;;;;5052569;28;20244;-87
2022/05/03 13:05:44;;;;;;;3.08;2.75;;;;;;;;;;5052128;28;20229;-90
2022/05/03 13:08:11;;;;;;;3.75;2.72;;;;;;;;;;5053659;28;20300;-88
2022/05/03 13:10:39;;;;;;;3.33;3.03;;;;;;;;;;5051661;28;20248;-86
2022/05/03 13:13:06;;;;;;;5.40;3.10;;;;;;;;;;5052223;28;20213;-85
2022/05/03 13:15:34;;;;;;;3.35;2.90;;;;;;;;;;5052220;28;20245;-86
2022/05/03 13:18:01;;;;;;;4.10;2.80;;;;;;;;;;5062276;28;20197;-87
2022/05/03 13:20:30;;;;;;;3.30;3.00;;;;;;;;;;5051961;28;20621;-87
2022/05/03 13:22:58;;;;;;;3.75;3.30;;;;;;;;;;5053182;28;20213;-87
2022/05/03 13:25:26;;;;;;;9.68;3.83;;;;;;;;;;5051405;28;20233;-87
2022/05/03 13:27:54;;;;;;;4.53;3.10;;;;;;;;;;5054884;28;20922;-86
2022/05/03 13:30:21;;;;;;;4.88;3.35;;;;;;;;;;5034923;28;20269;-87
2022/05/03 13:32:48;;;;;;;3.75;3.15;;;;;;;;;;5031013;28;20214;-86
2022/05/03 13:35:15;;;;;;;4.97;3.53;;;;;;;;;;5030785;28;20706;-87
2022/05/03 13:40:29;;;;;;;3.20;3.00;;;;;;;;;;5032961;28;20761;-86
2022/05/03 13:42:57;;;;;;;3.72;3.25;;;;;;;;;;5032203;28;20222;-87
2022/05/03 13:45:25;;;;;;;4.20;3.00;;;;;;;;;;5026512;28;20284;-87
2022/05/03 13:47:52;;;;;;;5.00;2.92;;;;;;;;;;5035526;28;20198;-87
2022/05/03 13:50:19;;;;;;;3.30;3.00;;;;;;;;;;5035312;28;20245;-88
2022/05/03 13:52:47;;;;;;;3.67;3.33;;;;;;;;;;5036297;28;20191;-87
2022/05/03 13:55:14;;;;;;;4.15;3.75;;;;;;;;;;5035509;28;20730;-87
2022/05/03 13:57:42;;;;;;;5.45;3.08;;;;;;;;;;5037083;28;20213;-87
2022/05/03 14:00:11;;;;;;;3.88;3.50;;;;;;;;;;5035448;28;20238;-88
2022/05/03 14:02:39;;;;;;;3.78;3.05;;;;;;;;;;5038476;28;20282;-88
2022/05/03 14:05:07;;;;;;;3.80;3.50;;;;;;;;;;5036136;28;20268;-87
2022/05/03 14:07:37;;;;;;;3.85;3.50;;;;;;;;;;5030555;28;20622;-89
2022/05/03 17:07:13;;;;;;;3.00;2.80;;;;;;;;;;5042685;23;20288;-87
2022/05/03 17:09:41;;;;;;;3.60;2.70;;;;;;;;;;5025529;28;20680;-86
2022/05/03 17:12:09;;;;;;;3.38;2.85;;;;;;;;;;5024721;28;20209;-86
2022/05/03 17:14:36;;;;;;;4.40;3.08;;;;;;;;;;5031061;28;20243;-86
2022/05/03 17:17:03;;;;;;;3.15;2.85;;;;;;;;;;5032756;28;20233;-85
2022/05/03 17:19:30;;;;;;;3.25;3.03;;;;;;;;;;5054395;28;20717;-86
2022/05/03 17:21:58;;;;;;;4.68;2.97;;;;;;;;;;5039120;28;20578;-87
2022/05/03 17:24:26;;;;;;;6.22;2.92;;;;;;;;;;5014183;28;20237;-86
2022/05/03 17:26:53;;;;;;;4.97;3.03;;;;;;;;;;5013639;28;20239;-86
2022/05/03 17:29:20;;;;;;;7.05;2.70;;;;;;;;;;5014427;28;20239;-86
2022/05/03 17:31:48;;;;;;;4.85;2.90;;;;;;;;;;5014141;28;20211;-85
2022/05/03 17:34:15;;;;;;;3.67;2.75;;;;;;;;;;5013920;28;20250;-86
2022/05/03 17:36:43;;;;;;;5.07;2.60;;;;;;;;;;5014144;28;20227;-85
2022/05/03 17:39:10;;;;;;;3.10;2.60;;;;;;;;;;5013357;28;20695;-85
2022/05/03 17:41:38;;;;;;;3.60;2.60;;;;;;;;;;5014767;28;20210;-85
2022/05/03 17:44:07;;;;;;;5.50;3.72;;;;;;;;;;5013971;28;20239;-86
2022/05/03 17:46:34;;;;;;;6.18;3.40;;;;;;;;;;5032781;28;20229;-87
2022/05/03 17:49:01;;;;;;;2.85;2.63;;;;;;;;;;5038122;28;20600;-87
2022/05/03 17:54:09;;;;;;;4.40;2.78;;;;;;;;;;5051868;28;20225;-86
2022/05/03 17:56:37;;;;;;;3.55;3.25;;;;;;;;;;5053698;28;20233;-85
2022/05/03 17:59:05;;;;;;;3.15;2.75;;;;;;;;;;5052357;28;20222;-86
2022/05/03 18:01:32;;;;;;;2.88;2.63;;;;;;;;;;5041026;28;20667;-85
2022/05/03 18:04:00;;;;;;;3.38;3.10;;;;;;;;;;5028739;28;20978;-85
2022/05/03 18:06:27;;;;;;;4.43;3.25;;;;;;;;;;5035793;28;20292;-85
2022/05/03 18:08:54;;;;;;;3.88;3.58;;;;;;;;;;5043301;28;20231;-85
2022/05/03 18:11:22;;;;;;;3.60;2.92;;;;;;;;;;5046663;28;20195;-85
2022/05/03 18:13:49;;;;;;;4.68;3.22;;;;;;;;;;5055420;28;20213;-80
2022/05/03 18:16:17;;;;;;;3.75;3.35;;;;;;;;;;5057169;28;20709;-81
2022/05/03 18:18:45;;;;;;;3.83;3.10;;;;;;;;;;5056341;28;20210;-81
2022/05/03 18:21:14;;;;;;;6.28;3.38;;;;;;;;;;5057827;28;20206;-82
2022/05/03 18:23:41;;;;;;;6.85;4.35;;;;;;;;;;5054802;28;20210;-85
2022/05/03 18:26:08;;;;;;;5.40;3.63;;;;;;;;;;5053290;28;20230;-84
2022/05/03 18:28:36;;;;;;;4.30;3.90;;;;;;;;;;5051718;28;20200;-84